createdAt,value
2018-11-11T00:00:18.366Z,13.30
2018-11-11T00:02:48.099Z,13.40
2018-11-11T00:05:17.512Z,13.30
2018-11-11T00:07:46.786Z,13.40
2018-11-11T00:10:18.327Z,13.40
2018-11-11T00:12:47.515Z,13.50
2018-11-11T00:15:17.718Z,13.50
2018-11-11T00:17:47.645Z,13.60
2018-11-11T00:20:17.155Z,13.60
2018-11-11T00:22:47.178Z,13.60
2018-11-11T00:25:16.351Z,13.50
2018-11-11T00:27:45.512Z,13.50
2018-11-11T00:30:18.734Z,13.50
2018-11-11T00:32:47.966Z,13.60
2018-11-11T00:35:17.079Z,13.60
2018-11-11T00:37:46.217Z,13.60
2018-11-11T00:40:16.099Z,13.60
2018-11-11T00:42:46.322Z,13.60
2018-11-11T00:45:16.254Z,13.50
2018-11-11T00:47:46.644Z,13.60
2018-11-11T00:50:16.226Z,13.60
2018-11-11T00:52:45.934Z,13.60
2018-11-11T00:55:16.415Z,13.60
2018-11-11T00:57:46.150Z,13.50
2018-11-11T01:00:17.112Z,13.50
2018-11-11T01:02:46.575Z,13.50
2018-11-11T01:05:16.688Z,13.60
2018-11-11T01:07:45.850Z,13.60
2018-11-11T01:10:16.096Z,13.70
2018-11-11T01:12:46.261Z,13.70
2018-11-11T01:15:16.354Z,13.60
2018-11-11T01:17:45.553Z,13.50
2018-11-11T01:20:15.988Z,13.50
2018-11-11T01:22:46.386Z,13.50
2018-11-11T01:25:16.932Z,13.50
2018-11-11T01:27:46.051Z,13.40
2018-11-11T01:30:15.243Z,13.40
2018-11-11T01:32:45.361Z,13.40
2018-11-11T01:35:15.615Z,13.40
2018-11-11T01:37:45.061Z,13.40
2018-11-11T01:40:15.204Z,13.40
2018-11-11T01:42:44.394Z,13.30
2018-11-11T01:45:16.548Z,13.40
2018-11-11T01:47:46.366Z,13.30
2018-11-11T01:50:16.263Z,13.40
2018-11-11T01:52:45.423Z,13.30
2018-11-11T01:55:15.297Z,13.30
2018-11-11T01:57:44.413Z,13.30
2018-11-11T02:00:15.653Z,13.40
2018-11-11T02:02:46.129Z,13.40
2018-11-11T02:05:16.054Z,13.40
2018-11-11T02:07:46.213Z,13.40
2018-11-11T02:10:15.375Z,13.40
2018-11-11T02:12:45.420Z,13.40
2018-11-11T02:15:15.719Z,13.40
2018-11-11T02:17:44.901Z,13.40
2018-11-11T02:20:16.172Z,13.30
2018-11-11T02:22:46.160Z,13.30
2018-11-11T02:25:15.399Z,13.30
2018-11-11T02:27:44.971Z,13.30
2018-11-11T02:30:21.584Z,13.30
2018-11-11T02:32:51.088Z,13.30
2018-11-11T02:35:20.314Z,13.40
2018-11-11T02:37:50.122Z,13.30
2018-11-11T02:40:20.177Z,13.20
2018-11-11T02:42:49.870Z,13.20
2018-11-11T02:45:19.999Z,13.30
2018-11-11T02:47:49.235Z,13.30
2018-11-11T02:50:19.220Z,13.30
2018-11-11T02:52:48.834Z,13.30
2018-11-11T02:55:18.123Z,13.30
2018-11-11T02:57:47.767Z,13.20
2018-11-11T03:00:18.243Z,13.30
2018-11-11T03:02:47.876Z,13.30
2018-11-11T03:05:17.814Z,13.30
2018-11-11T03:07:48.886Z,13.30
2018-11-11T03:10:18.548Z,13.30
2018-11-11T03:12:48.819Z,13.30
2018-11-11T03:15:18.233Z,13.30
2018-11-11T03:17:47.973Z,13.30
2018-11-11T03:20:17.759Z,13.30
2018-11-11T03:22:46.913Z,13.30
2018-11-11T03:25:16.830Z,13.30
2018-11-11T03:27:46.650Z,13.20
2018-11-11T03:30:17.732Z,13.30
2018-11-11T03:32:47.029Z,13.30
2018-11-11T03:35:16.129Z,13.40
2018-11-11T03:37:49.539Z,13.40
2018-11-11T03:40:19.946Z,13.40
2018-11-11T03:42:49.746Z,13.30
2018-11-11T03:45:20.501Z,13.40
2018-11-11T03:47:50.913Z,13.40
2018-11-11T03:50:20.112Z,13.40
2018-11-11T03:52:50.751Z,13.40
2018-11-11T03:55:20.730Z,13.30
2018-11-11T03:57:50.504Z,13.30
2018-11-11T04:00:19.707Z,13.30
2018-11-11T04:02:50.187Z,13.40
2018-11-11T04:05:21.064Z,13.40
2018-11-11T04:07:50.190Z,13.40
2018-11-11T04:10:20.321Z,13.40
2018-11-11T04:12:50.205Z,13.40
2018-11-11T04:15:20.326Z,13.40
2018-11-11T04:17:49.478Z,13.50
2018-11-11T04:20:20.159Z,13.50
2018-11-11T04:22:49.929Z,13.30
2018-11-11T04:25:19.629Z,13.30
2018-11-11T04:27:49.226Z,13.30
2018-11-11T04:30:19.293Z,13.30
2018-11-11T04:32:48.396Z,13.30
2018-11-11T04:35:17.587Z,13.20
2018-11-11T04:37:47.604Z,13.30
2018-11-11T04:40:16.781Z,13.30
2018-11-11T04:42:46.460Z,13.40
2018-11-11T04:45:16.385Z,13.40
2018-11-11T04:47:46.987Z,13.50
2018-11-11T04:50:17.317Z,13.40
2018-11-11T04:52:47.297Z,13.40
2018-11-11T04:55:16.422Z,13.40
2018-11-11T04:57:46.930Z,13.40
2018-11-11T05:00:16.110Z,13.30
2018-11-11T05:02:45.308Z,13.20
2018-11-11T05:05:14.923Z,13.20
2018-11-11T05:07:44.099Z,13.30
2018-11-11T05:10:13.705Z,13.20
2018-11-11T05:12:42.882Z,13.20
2018-11-11T05:15:13.080Z,13.20
2018-11-11T05:17:42.600Z,13.20
2018-11-11T05:20:13.189Z,13.20
2018-11-11T05:22:44.248Z,13.20
2018-11-11T05:25:14.538Z,13.30
2018-11-11T05:27:44.612Z,13.40
2018-11-11T05:30:14.542Z,13.40
2018-11-11T05:32:43.636Z,13.40
2018-11-11T05:35:13.127Z,13.40
2018-11-11T05:37:43.233Z,13.30
2018-11-11T05:40:13.176Z,13.40
2018-11-11T05:42:42.972Z,13.30
2018-11-11T05:45:13.595Z,13.30
2018-11-11T05:47:43.076Z,13.20
2018-11-11T05:50:14.431Z,13.20
2018-11-11T05:52:44.995Z,13.20
2018-11-11T05:55:14.412Z,13.20
2018-11-11T05:57:43.536Z,13.30
2018-11-11T06:00:16.720Z,13.20
2018-11-11T06:02:46.323Z,13.20
2018-11-11T06:05:16.824Z,13.20
2018-11-11T06:07:46.082Z,13.20
2018-11-11T06:10:15.910Z,13.20
2018-11-11T06:12:45.054Z,13.10
2018-11-11T06:15:15.254Z,13.20
2018-11-11T06:17:44.431Z,13.20
2018-11-11T06:20:15.634Z,13.10
2018-11-11T06:22:44.804Z,13.10
2018-11-11T06:25:13.926Z,13.10
2018-11-11T06:27:43.190Z,13.10
2018-11-11T06:30:12.843Z,13.20
2018-11-11T06:32:42.195Z,13.30
2018-11-11T06:35:11.370Z,13.20
2018-11-11T06:37:40.952Z,13.10
2018-11-11T06:40:11.614Z,13.10
2018-11-11T06:42:41.087Z,13.10
2018-11-11T06:45:13.043Z,13.10
2018-11-11T06:47:44.520Z,13.10
2018-11-11T06:50:14.724Z,13.10
2018-11-11T06:52:45.040Z,13.10
2018-11-11T06:55:14.938Z,13.20
2018-11-11T06:57:44.079Z,13.20
2018-11-11T07:00:15.750Z,13.20
2018-11-11T07:02:56.319Z,13.10
2018-11-11T07:05:25.483Z,13.10
2018-11-11T07:07:55.396Z,12.90
2018-11-11T07:10:25.622Z,13.00
2018-11-11T07:12:55.694Z,13.00
2018-11-11T07:15:26.565Z,13.00
2018-11-11T07:17:56.137Z,13.00
2018-11-11T07:20:25.499Z,13.00
2018-11-11T07:22:54.768Z,13.10
2018-11-11T07:25:24.812Z,13.20
2018-11-11T07:27:58.956Z,13.20
2018-11-11T07:30:28.136Z,13.20
2018-11-11T07:32:57.328Z,13.20
2018-11-11T07:35:26.492Z,13.30
2018-11-11T07:37:56.295Z,13.30
2018-11-11T07:40:26.446Z,13.40
2018-11-11T07:42:55.565Z,13.50
2018-11-11T07:45:24.779Z,13.50
2018-11-11T07:47:54.607Z,13.50
2018-11-11T07:50:23.807Z,13.60
2018-11-11T07:52:52.953Z,13.60
2018-11-11T07:55:22.706Z,13.70
2018-11-11T07:57:53.244Z,13.70
2018-11-11T08:00:23.312Z,13.70
2018-11-11T08:02:53.084Z,13.80
2018-11-11T08:05:22.860Z,13.90
2018-11-11T08:07:52.674Z,13.90
2018-11-11T08:10:32.899Z,13.80
2018-11-11T08:13:02.715Z,13.70
2018-11-11T08:15:32.547Z,13.60
2018-11-11T08:18:01.668Z,13.50
2018-11-11T08:20:30.814Z,13.60
2018-11-11T08:22:59.958Z,13.80
2018-11-11T08:25:29.298Z,13.80
2018-11-11T08:27:59.018Z,13.80
2018-11-11T08:30:29.637Z,13.80
2018-11-11T08:32:58.786Z,13.80
2018-11-11T08:35:27.917Z,13.70
2018-11-11T08:37:57.079Z,13.70
2018-11-11T08:40:26.871Z,13.80
2018-11-11T08:42:58.738Z,14.20
2018-11-11T08:45:28.511Z,14.30
2018-11-11T08:47:57.671Z,14.20
2018-11-11T08:50:26.851Z,14.10
2018-11-11T08:52:56.048Z,14.20
2018-11-11T08:55:28.503Z,14.10
2018-11-11T08:57:57.859Z,14.10
2018-11-11T09:00:27.102Z,14.00
2018-11-11T09:02:56.506Z,14.00
2018-11-11T09:05:26.659Z,14.00
2018-11-11T09:07:55.997Z,14.00
2018-11-11T09:10:25.835Z,14.00
2018-11-11T09:12:55.752Z,14.00
2018-11-11T09:15:25.202Z,14.10
2018-11-11T09:17:55.122Z,14.00
2018-11-11T09:20:24.340Z,14.10
2018-11-11T09:22:53.686Z,14.10
2018-11-11T09:25:23.038Z,14.10
2018-11-11T09:27:53.530Z,14.10
2018-11-11T09:30:22.952Z,14.30
2018-11-11T09:32:52.692Z,14.60
2018-11-11T09:35:22.061Z,14.70
2018-11-11T09:37:51.169Z,14.80
2018-11-11T09:40:20.417Z,15.00
2018-11-11T09:42:49.719Z,15.70
2018-11-11T09:45:19.522Z,17.20
2018-11-11T09:47:48.810Z,18.90
2018-11-11T09:50:17.973Z,20.00
2018-11-11T09:52:47.227Z,21.10
2018-11-11T09:55:16.535Z,20.60
2018-11-11T09:57:46.396Z,20.50
2018-11-11T10:00:18.778Z,21.60
2018-11-11T10:02:54.209Z,22.20
2018-11-11T10:05:30.635Z,22.50
2018-11-11T10:08:21.703Z,23.00
2018-11-11T10:11:24.846Z,23.20
2018-11-11T10:14:57.224Z,22.30
2018-11-11T10:17:34.766Z,22.10
2018-11-11T10:20:14.732Z,20.90
2018-11-11T10:22:55.732Z,19.60
2018-11-11T10:25:31.104Z,18.60
2018-11-11T10:28:09.766Z,17.80
2018-11-11T10:30:44.089Z,17.10
2018-11-11T10:35:34.535Z,16.70
2018-11-11T10:38:39.121Z,16.80
2018-11-11T10:41:13.278Z,17.00
2018-11-11T10:43:47.223Z,18.30
2018-11-11T10:46:23.257Z,18.30
2018-11-11T10:48:58.100Z,18.80
2018-11-11T10:51:27.384Z,19.60
2018-11-11T10:53:57.829Z,21.00
2018-11-11T10:56:27.567Z,22.60
2018-11-11T10:58:56.678Z,23.90
2018-11-11T11:01:26.816Z,23.90
2018-11-11T11:03:56.220Z,24.60
2018-11-11T11:06:30.616Z,24.10
2018-11-11T11:09:05.172Z,22.50
2018-11-11T11:11:34.431Z,21.70
2018-11-11T11:14:04.280Z,20.90
2018-11-11T11:16:33.651Z,20.40
2018-11-11T11:19:02.830Z,20.30
2018-11-11T11:21:32.029Z,19.80
2018-11-11T11:24:04.263Z,20.00
2018-11-11T11:26:33.432Z,19.70
2018-11-11T11:29:03.435Z,18.80
2018-11-11T11:31:33.322Z,17.80
2018-11-11T11:34:02.400Z,17.40
2018-11-11T11:36:31.669Z,17.00
2018-11-11T11:39:01.355Z,16.80
2018-11-11T11:41:30.586Z,16.60
2018-11-11T11:43:59.907Z,16.60
2018-11-11T11:46:29.165Z,16.50
2018-11-11T11:48:58.659Z,16.70
2018-11-11T11:51:28.886Z,16.70
2018-11-11T11:53:59.510Z,16.80
2018-11-11T11:56:29.113Z,16.80
2018-11-11T11:58:58.393Z,16.90
2018-11-11T12:01:28.129Z,17.00
2018-11-11T12:03:57.269Z,17.20
2018-11-11T12:06:26.397Z,17.60
2018-11-11T12:09:02.143Z,17.90
2018-11-11T12:11:31.274Z,18.00
2018-11-11T12:14:00.499Z,17.80
2018-11-11T12:16:30.615Z,17.30
2018-11-11T12:18:59.767Z,17.20
2018-11-11T12:21:29.212Z,17.10
2018-11-11T12:23:59.099Z,16.80
2018-11-11T12:26:28.874Z,16.70
2018-11-11T12:28:59.700Z,16.60
2018-11-11T12:31:28.927Z,16.40
2018-11-11T12:33:58.133Z,16.30
2018-11-11T12:36:27.322Z,16.30
2018-11-11T12:38:56.693Z,16.40
2018-11-11T12:41:25.820Z,16.20
2018-11-11T12:43:55.070Z,16.10
2018-11-11T12:46:24.175Z,16.00
2018-11-11T12:48:53.698Z,16.00
2018-11-11T12:51:23.031Z,16.20
2018-11-11T12:53:52.934Z,16.10
2018-11-11T12:56:22.671Z,16.10
2018-11-11T12:58:51.905Z,16.10
2018-11-11T13:01:21.042Z,16.20
2018-11-11T13:03:51.382Z,16.40
2018-11-11T13:06:20.654Z,16.30
2018-11-11T13:08:49.933Z,16.20
2018-11-11T13:11:19.812Z,16.20
2018-11-11T13:13:49.492Z,16.30
2018-11-11T13:16:18.694Z,16.10
2018-11-11T13:18:47.975Z,16.10
2018-11-11T13:21:17.193Z,16.10
2018-11-11T13:23:46.707Z,16.00
2018-11-11T13:26:15.854Z,15.90
2018-11-11T13:28:45.153Z,15.90
2018-11-11T13:31:14.459Z,15.80
2018-11-11T13:33:43.606Z,15.70
2018-11-11T13:36:12.900Z,15.60
2018-11-11T13:38:42.272Z,15.70
2018-11-11T13:41:11.490Z,15.60
2018-11-11T13:43:41.184Z,15.50
2018-11-11T13:46:10.526Z,15.30
2018-11-11T13:48:39.733Z,15.10
2018-11-11T13:51:08.994Z,15.00
2018-11-11T13:53:38.203Z,15.00
2018-11-11T13:56:08.075Z,15.10
2018-11-11T13:58:37.283Z,15.00
2018-11-11T14:01:06.719Z,14.90
2018-11-11T14:03:36.604Z,14.80
2018-11-11T14:06:06.349Z,14.80
2018-11-11T14:08:35.652Z,14.70
2018-11-11T14:11:05.937Z,14.70
2018-11-11T14:13:36.986Z,14.60
2018-11-11T14:16:08.739Z,14.40
2018-11-11T14:18:38.521Z,14.00
2018-11-11T14:21:08.231Z,13.80
2018-11-11T14:23:37.580Z,13.60
2018-11-11T14:26:06.969Z,13.60
2018-11-11T14:28:38.095Z,13.50
2018-11-11T14:31:07.811Z,13.50
2018-11-11T14:33:38.203Z,13.40
2018-11-11T14:36:08.221Z,13.40
2018-11-11T14:38:37.828Z,13.30
2018-11-11T14:41:07.446Z,13.20
2018-11-11T14:43:36.686Z,13.10
2018-11-11T14:46:06.361Z,13.20
2018-11-11T14:48:35.777Z,13.20
2018-11-11T14:51:05.579Z,13.30
2018-11-11T14:53:34.786Z,13.30
2018-11-11T14:56:04.518Z,13.30
2018-11-11T14:58:33.908Z,13.30
2018-11-11T15:01:03.892Z,13.30
2018-11-11T15:03:33.127Z,13.20
2018-11-11T15:06:03.148Z,13.20
2018-11-11T15:08:32.516Z,13.10
2018-11-11T15:11:01.833Z,13.00
2018-11-11T15:13:31.348Z,13.00
2018-11-11T15:16:00.803Z,12.90
2018-11-11T15:18:31.063Z,13.00
2018-11-11T15:21:00.368Z,13.00
2018-11-11T15:23:30.109Z,13.00
2018-11-11T15:26:00.872Z,13.00
2018-11-11T15:28:30.427Z,13.00
2018-11-11T15:31:01.266Z,12.90
2018-11-11T15:33:31.985Z,12.90
2018-11-11T15:36:01.286Z,12.90
2018-11-11T15:38:30.596Z,12.90
2018-11-11T15:41:01.143Z,12.90
2018-11-11T15:43:30.364Z,12.90
2018-11-11T15:46:00.857Z,13.00
2018-11-11T15:48:30.661Z,13.00
2018-11-11T15:51:00.484Z,13.00
2018-11-11T15:53:30.439Z,13.00
2018-11-11T15:56:01.431Z,13.00
2018-11-11T15:58:31.154Z,13.00
2018-11-11T16:01:00.475Z,13.10
2018-11-11T16:03:29.680Z,13.20
2018-11-11T16:05:58.908Z,13.20
2018-11-11T16:08:28.746Z,13.30
2018-11-11T16:10:58.134Z,13.40
2018-11-11T16:13:28.366Z,13.40
2018-11-11T16:15:57.682Z,13.30
2018-11-11T16:18:27.020Z,13.20
2018-11-11T16:20:56.237Z,13.20
2018-11-11T16:23:25.517Z,13.20
2018-11-11T16:25:55.445Z,13.30
2018-11-11T16:28:24.801Z,13.30
2018-11-11T16:30:56.173Z,13.30
2018-11-11T16:33:26.979Z,13.30
2018-11-11T16:35:56.396Z,13.30
2018-11-11T16:38:26.487Z,13.30
2018-11-11T16:40:56.936Z,13.30
2018-11-11T16:43:26.209Z,13.20
2018-11-11T16:45:56.154Z,13.20
2018-11-11T16:48:25.365Z,13.10
2018-11-11T16:50:54.946Z,13.20
2018-11-11T16:53:24.105Z,13.20
2018-11-11T16:55:53.849Z,13.30
2018-11-11T16:58:23.753Z,13.40
2018-11-11T17:00:53.255Z,13.30
2018-11-11T17:03:22.492Z,13.40
2018-11-11T17:05:51.760Z,13.40
2018-11-11T17:08:21.291Z,13.40
2018-11-11T17:10:51.035Z,13.50
2018-11-11T17:13:20.315Z,13.50
2018-11-11T17:15:49.744Z,13.50
2018-11-11T17:18:19.098Z,13.60
2018-11-11T17:20:49.277Z,13.60
2018-11-11T17:23:18.581Z,13.70
2018-11-11T17:25:47.922Z,13.70
2018-11-11T17:28:17.357Z,13.80
2018-11-11T17:30:47.529Z,13.80
2018-11-11T17:33:16.876Z,13.70
2018-11-11T17:35:46.395Z,13.70
2018-11-11T17:38:15.733Z,13.70
2018-11-11T17:40:45.034Z,13.60
2018-11-11T17:43:14.323Z,13.70
2018-11-11T17:45:44.013Z,13.70
2018-11-11T17:48:13.534Z,13.70
2018-11-11T17:50:43.454Z,13.70
2018-11-11T17:53:12.730Z,13.80
2018-11-11T17:55:42.206Z,13.80
2018-11-11T17:58:12.875Z,13.90
2018-11-11T18:00:42.349Z,13.90
2018-11-11T18:03:11.946Z,13.90
2018-11-11T18:05:41.659Z,14.00
2018-11-11T18:08:10.961Z,14.00
2018-11-11T18:10:40.326Z,13.90
2018-11-11T18:13:09.701Z,13.80
2018-11-11T18:15:39.061Z,13.70
2018-11-11T18:18:10.214Z,13.60
2018-11-11T18:20:39.611Z,13.50
2018-11-11T18:23:09.684Z,13.40
2018-11-11T18:25:39.071Z,13.40
2018-11-11T18:28:08.491Z,13.30
2018-11-11T18:30:37.775Z,13.20
2018-11-11T18:33:07.027Z,13.10
2018-11-11T18:35:37.493Z,13.10
2018-11-11T18:38:07.093Z,13.00
2018-11-11T18:40:37.941Z,13.00
2018-11-11T18:43:08.124Z,12.90
2018-11-11T18:45:38.011Z,13.00
2018-11-11T18:48:08.355Z,12.90
2018-11-11T18:50:37.563Z,12.90
2018-11-11T18:53:06.956Z,12.80
2018-11-11T18:55:37.214Z,12.80
2018-11-11T18:58:06.646Z,12.80
2018-11-11T19:00:36.483Z,12.80
2018-11-11T19:03:05.861Z,12.80
2018-11-11T19:05:35.186Z,12.80
2018-11-11T19:08:05.447Z,12.80
2018-11-11T19:10:34.942Z,12.80
2018-11-11T19:13:05.836Z,12.80
2018-11-11T19:15:35.085Z,12.80
2018-11-11T19:18:05.630Z,12.80
2018-11-11T19:20:35.271Z,12.80
2018-11-11T19:23:05.446Z,12.80
2018-11-11T19:25:34.962Z,12.70
2018-11-11T19:28:05.208Z,12.70
2018-11-11T19:30:35.770Z,12.70
2018-11-11T19:33:05.035Z,12.70
2018-11-11T19:38:01.500Z,12.60
2018-11-11T19:40:31.403Z,12.50
2018-11-11T19:43:01.527Z,12.50
2018-11-11T19:45:32.918Z,12.40
2018-11-11T19:48:02.114Z,12.40
2018-11-11T19:50:31.597Z,12.30
2018-11-11T19:53:01.025Z,12.30
2018-11-11T19:55:31.002Z,12.30
2018-11-11T19:58:00.511Z,12.30
2018-11-11T20:00:31.330Z,12.30
2018-11-11T20:03:02.158Z,12.30
2018-11-11T20:05:32.238Z,12.40
2018-11-11T20:08:02.580Z,12.30
2018-11-11T20:10:32.590Z,12.30
2018-11-11T20:13:02.666Z,12.40
2018-11-11T20:15:33.389Z,12.40
2018-11-11T20:18:03.974Z,12.50
2018-11-11T20:20:35.430Z,12.50
2018-11-11T20:23:05.083Z,12.40
2018-11-11T20:25:34.569Z,12.30
2018-11-11T20:28:04.709Z,12.30
2018-11-11T20:30:35.861Z,12.20
2018-11-11T20:33:06.330Z,12.10
2018-11-11T20:35:35.594Z,12.20
2018-11-11T20:38:05.266Z,12.20
2018-11-11T20:40:35.275Z,12.20
2018-11-11T20:43:05.533Z,12.20
2018-11-11T20:45:35.257Z,12.10
2018-11-11T20:48:04.598Z,12.20
2018-11-11T20:50:35.078Z,12.20
2018-11-11T20:53:05.696Z,12.30
2018-11-11T20:55:38.738Z,12.30
2018-11-11T20:58:09.691Z,12.40
2018-11-11T21:00:40.953Z,12.30
2018-11-11T21:03:11.520Z,12.30
2018-11-11T21:05:42.142Z,12.30
2018-11-11T21:08:12.473Z,12.30
2018-11-11T21:10:42.087Z,12.30
2018-11-11T21:13:11.557Z,12.30
2018-11-11T21:15:40.948Z,12.40
2018-11-11T21:18:10.268Z,12.30
2018-11-11T21:20:39.625Z,12.20
2018-11-11T21:23:08.823Z,12.20
2018-11-11T21:25:38.419Z,12.10
2018-11-11T21:28:09.304Z,12.20
2018-11-11T21:30:39.744Z,12.20
2018-11-11T21:33:09.709Z,12.20
2018-11-11T21:35:39.070Z,12.20
2018-11-11T21:38:08.416Z,12.10
2018-11-11T21:40:37.677Z,12.10
2018-11-11T21:43:07.989Z,12.10
2018-11-11T21:45:38.316Z,12.00
2018-11-11T21:48:08.266Z,12.00
2018-11-11T21:50:37.594Z,12.00
2018-11-11T21:53:42.649Z,12.00
2018-11-11T21:56:13.266Z,12.00
2018-11-11T21:58:43.424Z,12.10
2018-11-11T22:01:13.068Z,12.10
2018-11-11T22:03:42.333Z,12.10
2018-11-11T22:06:11.670Z,12.10
2018-11-11T22:08:40.879Z,12.20
2018-11-11T22:11:10.546Z,12.20
2018-11-11T22:13:39.752Z,12.30
2018-11-11T22:16:09.075Z,12.20
2018-11-11T22:18:40.176Z,12.20
2018-11-11T22:21:09.442Z,12.20
2018-11-11T22:23:38.744Z,12.20
2018-11-11T22:26:07.925Z,12.20
2018-11-11T22:28:38.135Z,12.10
2018-11-11T22:31:07.448Z,12.10
2018-11-11T22:33:36.762Z,12.10
2018-11-11T22:36:06.121Z,12.10
2018-11-11T22:38:35.325Z,12.10
2018-11-11T22:41:04.675Z,12.20
2018-11-11T22:43:33.979Z,12.20
2018-11-11T22:46:03.474Z,12.20
2018-11-11T22:48:32.828Z,12.30
2018-11-11T22:51:02.049Z,12.40
2018-11-11T22:53:31.218Z,12.40
2018-11-11T22:56:00.577Z,12.40
2018-11-11T22:58:29.948Z,12.50
2018-11-11T23:01:04.543Z,12.60
2018-11-11T23:03:34.281Z,12.70
2018-11-11T23:06:04.859Z,12.70
2018-11-11T23:08:34.316Z,12.80
2018-11-11T23:11:04.484Z,12.70
2018-11-11T23:13:33.662Z,12.80
2018-11-11T23:16:03.635Z,12.70
2018-11-11T23:18:33.459Z,12.70
2018-11-11T23:21:02.945Z,12.60
2018-11-11T23:23:32.096Z,12.60
2018-11-11T23:26:01.271Z,12.70
2018-11-11T23:28:30.431Z,12.70
2018-11-11T23:31:00.075Z,12.70
2018-11-11T23:33:30.350Z,12.60
2018-11-11T23:35:59.564Z,12.50
2018-11-11T23:38:28.925Z,12.60
2018-11-11T23:40:58.123Z,12.70
2018-11-11T23:43:27.252Z,12.80
2018-11-11T23:45:56.547Z,12.80
2018-11-11T23:48:25.743Z,12.80
2018-11-11T23:50:55.545Z,12.80
2018-11-11T23:53:31.259Z,12.80
2018-11-11T23:56:00.989Z,12.90
2018-11-11T23:58:30.262Z,12.90
